sensor_id;sensor_type;location;lat;lon;timestamp;pressure;altitude;pressure_sealevel;temperature;humidity
21728;BME280;11026;50.560;17.852;2023-04-01T00:01:14;97810.88;;;9.05;99.86
21728;BME280;11026;50.560;17.852;2023-04-01T00:03:43;97814.50;;;8.90;100.00
21728;BME280;11026;50.560;17.852;2023-04-01T00:06:15;97808.03;;;8.81;100.00
21728;BME280;11026;50.560;17.852;2023-04-01T00:08:43;97807.09;;;8.82;100.00
21728;BME280;11026;50.560;17.852;2023-04-01T00:11:11;97803.81;;;8.79;100.00
21728;BME280;11026;50.560;17.852;2023-04-01T00:13:39;97807.19;;;8.81;100.00
21728;BME280;11026;50.560;17.852;2023-04-01T00:16:07;97800.44;;;8.77;100.00
21728;BME280;11026;50.560;17.852;2023-04-01T00:18:48;97803.63;;;8.82;100.00
21728;BME280;11026;50.560;17.852;2023-04-01T00:21:22;97811.63;;;8.80;99.57
21728;BME280;11026;50.560;17.852;2023-04-01T00:23:50;97807.97;;;8.83;99.40
21728;BME280;11026;50.560;17.852;2023-04-01T00:26:18;97808.53;;;8.74;99.76
21728;BME280;11026;50.560;17.852;2023-04-01T00:28:49;97809.00;;;8.80;99.46
21728;BME280;11026;50.560;17.852;2023-04-01T00:31:17;97814.09;;;8.69;99.99
21728;BME280;11026;50.560;17.852;2023-04-01T00:33:44;97812.00;;;8.74;99.96
21728;BME280;11026;50.560;17.852;2023-04-01T00:36:14;97810.06;;;8.64;100.00
21728;BME280;11026;50.560;17.852;2023-04-01T00:38:43;97807.44;;;8.64;100.00
21728;BME280;11026;50.560;17.852;2023-04-01T00:41:14;97810.25;;;8.60;100.00
21728;BME280;11026;50.560;17.852;2023-04-01T00:43:46;97804.16;;;8.60;100.00
21728;BME280;11026;50.560;17.852;2023-04-01T00:46:14;97809.41;;;8.60;100.00
21728;BME280;11026;50.560;17.852;2023-04-01T00:48:54;97810.06;;;8.64;100.00
21728;BME280;11026;50.560;17.852;2023-04-01T00:51:25;97811.84;;;8.63;100.00
21728;BME280;11026;50.560;17.852;2023-04-01T00:53:58;97799.31;;;8.67;100.00
21728;BME280;11026;50.560;17.852;2023-04-01T00:56:48;97803.94;;;8.63;100.00
21728;BME280;11026;50.560;17.852;2023-04-01T00:59:27;97799.72;;;8.60;100.00
21728;BME280;11026;50.560;17.852;2023-04-01T01:01:56;97796.69;;;8.67;100.00
21728;BME280;11026;50.560;17.852;2023-04-01T01:04:31;97795.53;;;8.71;99.72
21728;BME280;11026;50.560;17.852;2023-04-01T01:13:18;97792.56;;;8.62;99.38
21728;BME280;11026;50.560;17.852;2023-04-01T01:15:49;97790.69;;;8.65;99.58
21728;BME280;11026;50.560;17.852;2023-04-01T01:35:49;97777.72;;;8.47;100.00
21728;BME280;11026;50.560;17.852;2023-04-01T01:38:27;97781.94;;;8.50;100.00
21728;BME280;11026;50.560;17.852;2023-04-01T01:40:57;97782.06;;;8.48;100.00
21728;BME280;11026;50.560;17.852;2023-04-01T01:43:30;97778.59;;;8.48;100.00
21728;BME280;11026;50.560;17.852;2023-04-01T01:46:02;97780.34;;;8.47;100.00
21728;BME280;11026;50.560;17.852;2023-04-01T01:48:36;97787.88;;;8.53;100.00
21728;BME280;11026;50.560;17.852;2023-04-01T01:51:06;97786.00;;;8.55;100.00
21728;BME280;11026;50.560;17.852;2023-04-01T01:53:34;97786.19;;;8.52;100.00
21728;BME280;11026;50.560;17.852;2023-04-01T01:56:10;97791.47;;;8.52;100.00
21728;BME280;11026;50.560;17.852;2023-04-01T01:58:45;97789.78;;;8.51;100.00
21728;BME280;11026;50.560;17.852;2023-04-01T02:01:20;97785.78;;;8.58;100.00
21728;BME280;11026;50.560;17.852;2023-04-01T02:03:52;97781.28;;;8.46;100.00
21728;BME280;11026;50.560;17.852;2023-04-01T02:06:23;97781.28;;;8.46;100.00
21728;BME280;11026;50.560;17.852;2023-04-01T02:08:54;97786.84;;;8.56;100.00
21728;BME280;11026;50.560;17.852;2023-04-01T02:11:30;97782.78;;;8.50;100.00
21728;BME280;11026;50.560;17.852;2023-04-01T02:16:40;97784.38;;;8.67;100.00
21728;BME280;11026;50.560;17.852;2023-04-01T02:19:11;97787.19;;;8.64;100.00
21728;BME280;11026;50.560;17.852;2023-04-01T02:21:41;97790.06;;;8.74;100.00
21728;BME280;11026;50.560;17.852;2023-04-01T02:24:13;97785.56;;;8.76;100.00
21728;BME280;11026;50.560;17.852;2023-04-01T02:26:43;97786.41;;;8.76;99.71
21728;BME280;11026;50.560;17.852;2023-04-01T02:29:23;97783.59;;;8.79;99.15
21728;BME280;11026;50.560;17.852;2023-04-01T02:31:52;97784.91;;;8.72;99.54
21728;BME280;11026;50.560;17.852;2023-04-01T02:34:21;97793.47;;;8.76;99.86
21728;BME280;11026;50.560;17.852;2023-04-01T02:36:50;97790.84;;;8.76;99.96
21728;BME280;11026;50.560;17.852;2023-04-01T02:39:18;97797.03;;;8.75;100.00
21728;BME280;11026;50.560;17.852;2023-04-01T02:41:46;97795.53;;;8.71;100.00
21728;BME280;11026;50.560;17.852;2023-04-01T02:44:14;97789.25;;;8.59;100.00
21728;BME280;11026;50.560;17.852;2023-04-01T02:46:43;97799.81;;;8.59;100.00
21728;BME280;11026;50.560;17.852;2023-04-01T02:49:11;97800.66;;;8.86;99.02
21728;BME280;11026;50.560;17.852;2023-04-01T02:51:40;97806.09;;;8.71;99.09
21728;BME280;11026;50.560;17.852;2023-04-01T02:54:09;97809.50;;;8.58;99.61
21728;BME280;11026;50.560;17.852;2023-04-01T02:56:38;97812.50;;;8.67;99.99
21728;BME280;11026;50.560;17.852;2023-04-01T02:59:06;97813.19;;;8.56;100.00
21728;BME280;11026;50.560;17.852;2023-04-01T03:01:33;97811.94;;;8.61;100.00
21728;BME280;11026;50.560;17.852;2023-04-01T03:04:01;97808.34;;;8.62;100.00
21728;BME280;11026;50.560;17.852;2023-04-01T03:06:28;97806.44;;;8.52;100.00
21728;BME280;11026;50.560;17.852;2023-04-01T03:08:57;97812.72;;;8.49;100.00
21728;BME280;11026;50.560;17.852;2023-04-01T03:11:24;97813.84;;;8.59;100.00
21728;BME280;11026;50.560;17.852;2023-04-01T03:13:53;97817.41;;;8.58;100.00
21728;BME280;11026;50.560;17.852;2023-04-01T03:16:20;97808.03;;;8.40;100.00
21728;BME280;11026;50.560;17.852;2023-04-01T03:18:49;97810.66;;;8.26;100.00
21728;BME280;11026;50.560;17.852;2023-04-01T03:21:22;97808.41;;;8.05;100.00
21728;BME280;11026;50.560;17.852;2023-04-01T03:23:50;97815.16;;;8.09;100.00
21728;BME280;11026;50.560;17.852;2023-04-01T03:26:17;97811.28;;;8.15;100.00
21728;BME280;11026;50.560;17.852;2023-04-01T03:28:45;97818.75;;;8.08;100.00
21728;BME280;11026;50.560;17.852;2023-04-01T03:31:15;97814.50;;;8.06;100.00
21728;BME280;11026;50.560;17.852;2023-04-01T03:33:43;97812.81;;;8.05;100.00
21728;BME280;11026;50.560;17.852;2023-04-01T03:36:10;97814.59;;;8.04;100.00
21728;BME280;11026;50.560;17.852;2023-04-01T03:38:44;97820.78;;;8.03;100.00
21728;BME280;11026;50.560;17.852;2023-04-01T03:41:15;97823.72;;;8.13;100.00
21728;BME280;11026;50.560;17.852;2023-04-01T03:43:43;97812.81;;;8.05;100.00
21728;BME280;11026;50.560;17.852;2023-04-01T03:46:16;97818.63;;;8.10;100.00
21728;BME280;11026;50.560;17.852;2023-04-01T03:48:43;97811.59;;;8.10;100.00
21728;BME280;11026;50.560;17.852;2023-04-01T03:51:12;97816.00;;;8.10;100.00
21728;BME280;11026;50.560;17.852;2023-04-01T03:53:41;97815.53;;;8.18;100.00
21728;BME280;11026;50.560;17.852;2023-04-01T03:56:09;97813.25;;;8.11;100.00
21728;BME280;11026;50.560;17.852;2023-04-01T03:58:36;97809.31;;;8.19;100.00
21728;BME280;11026;50.560;17.852;2023-04-01T04:01:20;97813.38;;;8.24;100.00
21728;BME280;11026;50.560;17.852;2023-04-01T04:03:52;97805.56;;;8.23;100.00
21728;BME280;11026;50.560;17.852;2023-04-01T04:06:19;97814.31;;;8.23;100.00
21728;BME280;11026;50.560;17.852;2023-04-01T04:08:49;97807.47;;;8.21;100.00
21728;BME280;11026;50.560;17.852;2023-04-01T04:11:18;97804.91;;;8.05;100.00
21728;BME280;11026;50.560;17.852;2023-04-01T04:13:46;97807.81;;;8.14;100.00
21728;BME280;11026;50.560;17.852;2023-04-01T04:16:24;97806.63;;;8.20;100.00
21728;BME280;11026;50.560;17.852;2023-04-01T04:18:51;97809.97;;;8.22;100.00
21728;BME280;11026;50.560;17.852;2023-04-01T04:21:19;97807.28;;;8.24;100.00
21728;BME280;11026;50.560;17.852;2023-04-01T04:23:46;97809.31;;;8.19;100.00
21728;BME280;11026;50.560;17.852;2023-04-01T04:26:14;97808.19;;;8.23;100.00
21728;BME280;11026;50.560;17.852;2023-04-01T04:28:42;97808.00;;;8.26;100.00
21728;BME280;11026;50.560;17.852;2023-04-01T04:31:12;97810.34;;;8.30;100.00
21728;BME280;11026;50.560;17.852;2023-04-01T04:33:45;97816.50;;;8.17;100.00
21728;BME280;11026;50.560;17.852;2023-04-01T04:36:12;97820.03;;;8.16;100.00
21728;BME280;11026;50.560;17.852;2023-04-01T04:38:40;97822.13;;;8.10;100.00
21728;BME280;11026;50.560;17.852;2023-04-01T04:41:14;97814.03;;;8.13;100.00
21728;BME280;11026;50.560;17.852;2023-04-01T04:43:53;97816.13;;;8.08;100.00
21728;BME280;11026;50.560;17.852;2023-04-01T04:46:22;97814.41;;;8.07;100.00
21728;BME280;11026;50.560;17.852;2023-04-01T04:48:49;97817.63;;;8.12;100.00
21728;BME280;11026;50.560;17.852;2023-04-01T04:51:19;97810.25;;;8.03;100.00
21728;BME280;11026;50.560;17.852;2023-04-01T04:53:48;97820.63;;;8.06;100.00
21728;BME280;11026;50.560;17.852;2023-04-01T04:56:22;97813.09;;;8.00;100.00
21728;BME280;11026;50.560;17.852;2023-04-01T04:58:50;97818.94;;;8.05;100.00
21728;BME280;11026;50.560;17.852;2023-04-01T05:01:20;97816.19;;;8.07;100.00
21728;BME280;11026;50.560;17.852;2023-04-01T05:03:47;97820.63;;;8.06;100.00
21728;BME280;11026;50.560;17.852;2023-04-01T05:06:15;97822.66;;;8.16;100.00
21728;BME280;11026;50.560;17.852;2023-04-01T05:08:44;97826.06;;;8.18;100.00
21728;BME280;11026;50.560;17.852;2023-04-01T05:11:16;97829.38;;;8.21;100.00
21728;BME280;11026;50.560;17.852;2023-04-01T05:13:44;97831.16;;;8.21;100.00
21728;BME280;11026;50.560;17.852;2023-04-01T05:16:18;97833.78;;;8.21;100.00
21728;BME280;11026;50.560;17.852;2023-04-01T05:18:47;97830.22;;;8.36;100.00
21728;BME280;11026;50.560;17.852;2023-04-01T05:21:15;97831.75;;;8.40;100.00
21728;BME280;11026;50.560;17.852;2023-04-01T05:23:42;97831.66;;;8.42;100.00
21728;BME280;11026;50.560;17.852;2023-04-01T05:26:12;97827.50;;;8.52;100.00
21728;BME280;11026;50.560;17.852;2023-04-01T05:28:41;97831.28;;;8.48;100.00
21728;BME280;11026;50.560;17.852;2023-04-01T05:31:09;97834.94;;;8.45;100.00
21728;BME280;11026;50.560;17.852;2023-04-01T05:33:36;97839.72;;;8.53;100.00
21728;BME280;11026;50.560;17.852;2023-04-01T05:36:15;97839.25;;;8.46;100.00
21728;BME280;11026;50.560;17.852;2023-04-01T05:38:50;97834.00;;;8.46;100.00
21728;BME280;11026;50.560;17.852;2023-04-01T05:41:19;97846.44;;;8.44;100.00
21728;BME280;11026;50.560;17.852;2023-04-01T05:43:54;97843.38;;;8.36;100.00
21728;BME280;11026;50.560;17.852;2023-04-01T05:46:23;97836.91;;;8.42;100.00
21728;BME280;11026;50.560;17.852;2023-04-01T05:48:52;97844.94;;;8.40;100.00
21728;BME280;11026;50.560;17.852;2023-04-01T05:51:20;97839.38;;;8.45;100.00
21728;BME280;11026;50.560;17.852;2023-04-01T05:53:50;97842.75;;;8.47;100.00
21728;BME280;11026;50.560;17.852;2023-04-01T05:56:19;97855.78;;;8.34;100.00
21728;BME280;11026;50.560;17.852;2023-04-01T05:58:53;97848.84;;;8.33;100.00
21728;BME280;11026;50.560;17.852;2023-04-01T06:01:21;97849.69;;;8.33;100.00
21728;BME280;11026;50.560;17.852;2023-04-01T06:03:49;97854.00;;;8.34;100.00
21728;BME280;11026;50.560;17.852;2023-04-01T06:06:28;97859.38;;;8.33;100.00
21728;BME280;11026;50.560;17.852;2023-04-01T06:08:58;97867.56;;;8.28;100.00
21728;BME280;11026;50.560;17.852;2023-04-01T06:12:06;97868.78;;;8.23;100.00
21728;BME280;11026;50.560;17.852;2023-04-01T06:26:34;97869.06;;;8.32;100.00
21728;BME280;11026;50.560;17.852;2023-04-01T06:29:22;97865.38;;;8.35;100.00
21728;BME280;11026;50.560;17.852;2023-04-01T06:32:19;97878.41;;;8.38;100.00
21728;BME280;11026;50.560;17.852;2023-04-01T06:37:43;97872.13;;;8.41;100.00
21728;BME280;11026;50.560;17.852;2023-04-01T06:40:45;97878.97;;;8.43;100.00
21728;BME280;11026;50.560;17.852;2023-04-01T06:43:39;97879.06;;;8.42;100.00
21728;BME280;11026;50.560;17.852;2023-04-01T06:49:06;97882.47;;;8.44;100.00
21728;BME280;11026;50.560;17.852;2023-04-01T06:51:48;97874.66;;;8.56;100.00
21728;BME280;11026;50.560;17.852;2023-04-01T06:54:52;97878.97;;;8.57;100.00
21728;BME280;11026;50.560;17.852;2023-04-01T06:57:34;97884.53;;;8.67;100.00
21728;BME280;11026;50.560;17.852;2023-04-01T07:00:19;97883.84;;;8.92;100.00
21728;BME280;11026;50.560;17.852;2023-04-01T07:05:35;97887.59;;;8.88;100.00
21728;BME280;11026;50.560;17.852;2023-04-01T07:08:06;97886.28;;;8.95;100.00
21728;BME280;11026;50.560;17.852;2023-04-01T07:11:01;97885.31;;;8.96;100.00
21728;BME280;11026;50.560;17.852;2023-04-01T07:13:33;97895.09;;;9.08;100.00
21728;BME280;11026;50.560;17.852;2023-04-01T07:16:07;97887.72;;;9.14;100.00
21728;BME280;11026;50.560;17.852;2023-04-01T07:18:50;97889.72;;;9.37;100.00
21728;BME280;11026;50.560;17.852;2023-04-01T07:22:09;97892.13;;;9.54;100.00
21728;BME280;11026;50.560;17.852;2023-04-01T07:24:44;97890.63;;;9.50;100.00
21728;BME280;11026;50.560;17.852;2023-04-01T07:27:13;97891.88;;;9.45;100.00
21728;BME280;11026;50.560;17.852;2023-04-01T07:29:42;97903.56;;;9.41;100.00
21728;BME280;11026;50.560;17.852;2023-04-01T07:40:11;97904.16;;;9.04;100.00
21728;BME280;11026;50.560;17.852;2023-04-01T07:45:29;97911.16;;;8.91;100.00
21728;BME280;11026;50.560;17.852;2023-04-01T07:51:09;97910.00;;;8.95;100.00
21728;BME280;11026;50.560;17.852;2023-04-01T07:54:06;97903.38;;;9.02;100.00
21728;BME280;11026;50.560;17.852;2023-04-01T07:59:41;97907.13;;;9.13;100.00
21728;BME280;11026;50.560;17.852;2023-04-01T08:02:21;97906.69;;;9.06;100.00
21728;BME280;11026;50.560;17.852;2023-04-01T08:05:03;97918.34;;;9.16;100.00
21728;BME280;11026;50.560;17.852;2023-04-01T08:13:48;97917.00;;;9.23;100.00
21728;BME280;11026;50.560;17.852;2023-04-01T08:19:14;97919.22;;;9.44;100.00
21728;BME280;11026;50.560;17.852;2023-04-01T08:21:45;97921.88;;;9.56;100.00
21728;BME280;11026;50.560;17.852;2023-04-01T08:24:29;97918.94;;;9.61;100.00
21728;BME280;11026;50.560;17.852;2023-04-01T08:27:37;97918.59;;;9.80;100.00
21728;BME280;11026;50.560;17.852;2023-04-01T08:30:27;97929.00;;;9.69;100.00
21728;BME280;11026;50.560;17.852;2023-04-01T08:33:13;97922.69;;;9.44;100.00
21728;BME280;11026;50.560;17.852;2023-04-01T08:35:56;97932.13;;;9.34;100.00
21728;BME280;11026;50.560;17.852;2023-04-01T08:38:42;97936.22;;;9.25;100.00
21728;BME280;11026;50.560;17.852;2023-04-01T08:44:39;97932.72;;;9.25;100.00
21728;BME280;11026;50.560;17.852;2023-04-01T08:52:34;97934.88;;;9.32;100.00
21728;BME280;11026;50.560;17.852;2023-04-01T09:07:03;97938.59;;;9.70;100.00
21728;BME280;11026;50.560;17.852;2023-04-01T09:09:58;97935.53;;;9.90;100.00
21728;BME280;11026;50.560;17.852;2023-04-01T09:24:14;97940.91;;;10.01;100.00
21728;BME280;11026;50.560;17.852;2023-04-01T09:32:26;97941.13;;;9.98;100.00
21728;BME280;11026;50.560;17.852;2023-04-01T09:35:20;97941.72;;;9.89;100.00
21728;BME280;11026;50.560;17.852;2023-04-01T09:40:56;97940.88;;;9.89;100.00
21728;BME280;11026;50.560;17.852;2023-04-01T09:46:11;97952.75;;;10.08;100.00
21728;BME280;11026;50.560;17.852;2023-04-01T09:51:33;97940.88;;;10.41;100.00
21728;BME280;11026;50.560;17.852;2023-04-01T09:57:22;97956.22;;;10.74;100.00
21728;BME280;11026;50.560;17.852;2023-04-01T10:00:24;97951.47;;;10.79;100.00
21728;BME280;11026;50.560;17.852;2023-04-01T10:23:57;97954.72;;;11.45;100.00
21728;BME280;11026;50.560;17.852;2023-04-01T10:42:02;97962.19;;;13.03;94.63
21728;BME280;11026;50.560;17.852;2023-04-01T10:51:32;97954.13;;;12.25;93.22
21728;BME280;11026;50.560;17.852;2023-04-01T11:05:58;97964.19;;;12.09;91.32
21728;BME280;11026;50.560;17.852;2023-04-01T11:20:48;97962.13;;;12.01;87.83
21728;BME280;11026;50.560;17.852;2023-04-01T11:29:41;97970.34;;;11.61;90.07
21728;BME280;11026;50.560;17.852;2023-04-01T11:35:19;97968.94;;;11.68;90.49
21728;BME280;11026;50.560;17.852;2023-04-01T11:52:37;97974.72;;;11.49;93.82
21728;BME280;11026;50.560;17.852;2023-04-01T12:06:25;97985.84;;;12.38;89.60
21728;BME280;11026;50.560;17.852;2023-04-01T12:17:26;97972.75;;;12.59;87.40
21728;BME280;11026;50.560;17.852;2023-04-01T12:20:22;97983.75;;;12.65;87.74
21728;BME280;11026;50.560;17.852;2023-04-01T12:25:58;97980.22;;;13.66;82.41
21728;BME280;11026;50.560;17.852;2023-04-01T12:31:27;97975.59;;;13.47;76.12
21728;BME280;11026;50.560;17.852;2023-04-01T12:40:17;97975.31;;;12.94;77.21
21728;BME280;11026;50.560;17.852;2023-04-01T12:45:34;97979.56;;;13.30;79.13
21728;BME280;11026;50.560;17.852;2023-04-01T12:50:42;97976.66;;;13.22;79.16
21728;BME280;11026;50.560;17.852;2023-04-01T13:10:20;97998.63;;;13.13;83.53
21728;BME280;11026;50.560;17.852;2023-04-01T13:13:00;97996.34;;;13.08;85.26
21728;BME280;11026;50.560;17.852;2023-04-01T13:15:44;98005.50;;;13.04;85.57
21728;BME280;11026;50.560;17.852;2023-04-01T13:18:45;98003.47;;;13.08;83.63
21728;BME280;11026;50.560;17.852;2023-04-01T13:21:40;98000.91;;;13.06;83.17
21728;BME280;11026;50.560;17.852;2023-04-01T13:27:44;98002.94;;;13.02;86.17
21728;BME280;11026;50.560;17.852;2023-04-01T13:32:47;98014.59;;;13.24;88.59
21728;BME280;11026;50.560;17.852;2023-04-01T13:35:30;98017.94;;;13.15;88.09
21728;BME280;11026;50.560;17.852;2023-04-01T13:41:45;98023.00;;;12.95;91.86
21728;BME280;11026;50.560;17.852;2023-04-01T13:47:08;98031.31;;;12.44;95.89
21728;BME280;11026;50.560;17.852;2023-04-01T13:50:22;98037.16;;;12.25;100.00
21728;BME280;11026;50.560;17.852;2023-04-01T13:56:16;98029.16;;;11.90;100.00
21728;BME280;11026;50.560;17.852;2023-04-01T14:02:17;98038.72;;;11.80;100.00
21728;BME280;11026;50.560;17.852;2023-04-01T14:10:58;98052.78;;;11.31;100.00
21728;BME280;11026;50.560;17.852;2023-04-01T14:31:14;98052.59;;;11.34;100.00
21728;BME280;11026;50.560;17.852;2023-04-01T14:34:05;98055.94;;;11.36;100.00
21728;BME280;11026;50.560;17.852;2023-04-01T14:36:47;98047.59;;;11.79;100.00
21728;BME280;11026;50.560;17.852;2023-04-01T14:45:24;98066.03;;;11.80;100.00
21728;BME280;11026;50.560;17.852;2023-04-01T14:48:13;98063.50;;;11.79;100.00
21728;BME280;11026;50.560;17.852;2023-04-01T14:50:54;98064.03;;;11.71;100.00
21728;BME280;11026;50.560;17.852;2023-04-01T14:55:53;98069.28;;;11.47;100.00
21728;BME280;11026;50.560;17.852;2023-04-01T14:58:24;98079.25;;;11.44;100.00
21728;BME280;11026;50.560;17.852;2023-04-01T15:01:11;98069.88;;;11.64;100.00
21728;BME280;11026;50.560;17.852;2023-04-01T15:07:07;98077.97;;;11.49;100.00
21728;BME280;11026;50.560;17.852;2023-04-01T15:12:40;98082.34;;;11.25;100.00
21728;BME280;11026;50.560;17.852;2023-04-01T15:18:08;98079.50;;;11.02;100.00
21728;BME280;11026;50.560;17.852;2023-04-01T15:21:05;98086.25;;;11.06;100.00
21728;BME280;11026;50.560;17.852;2023-04-01T15:38:21;98107.44;;;10.94;100.00
21728;BME280;11026;50.560;17.852;2023-04-01T15:46:20;98117.38;;;10.90;100.00
21728;BME280;11026;50.560;17.852;2023-04-01T16:11:41;98150.88;;;10.23;100.00
21728;BME280;11026;50.560;17.852;2023-04-01T16:14:37;98161.81;;;9.75;100.00
21728;BME280;11026;50.560;17.852;2023-04-01T16:20:22;98174.66;;;9.67;100.00
21728;BME280;11026;50.560;17.852;2023-04-01T16:25:41;98175.59;;;9.66;100.00
21728;BME280;11026;50.560;17.852;2023-04-01T16:37:28;98197.34;;;9.27;100.00
21728;BME280;11026;50.560;17.852;2023-04-01T16:40:23;98197.53;;;9.24;100.00
21728;BME280;11026;50.560;17.852;2023-04-01T16:43:28;98201.66;;;9.28;100.00
21728;BME280;11026;50.560;17.852;2023-04-01T16:46:31;98209.66;;;9.12;100.00
21728;BME280;11026;50.560;17.852;2023-04-01T16:49:23;98207.69;;;9.16;100.00
21728;BME280;11026;50.560;17.852;2023-04-01T16:54:30;98210.66;;;8.95;100.00
21728;BME280;11026;50.560;17.852;2023-04-01T17:02:47;98237.88;;;8.96;100.00
21728;BME280;11026;50.560;17.852;2023-04-01T17:05:18;98238.47;;;8.85;100.00
21728;BME280;11026;50.560;17.852;2023-04-01T17:18:59;98240.38;;;8.83;100.00
21728;BME280;11026;50.560;17.852;2023-04-01T17:22:33;98242.63;;;8.89;100.00
21728;BME280;11026;50.560;17.852;2023-04-01T17:33:31;98238.13;;;8.91;100.00
21728;BME280;11026;50.560;17.852;2023-04-01T17:36:16;98246.88;;;8.92;100.00
21728;BME280;11026;50.560;17.852;2023-04-01T17:39:18;98243.16;;;8.80;100.00
21728;BME280;11026;50.560;17.852;2023-04-01T17:42:04;98243.25;;;8.78;100.00
21728;BME280;11026;50.560;17.852;2023-04-01T17:45:04;98255.56;;;8.78;100.00
21728;BME280;11026;50.560;17.852;2023-04-01T17:47:49;98257.97;;;8.67;100.00
21728;BME280;11026;50.560;17.852;2023-04-01T17:50:29;98258.75;;;8.69;100.00
21728;BME280;11026;50.560;17.852;2023-04-01T17:59:16;98264.44;;;8.61;100.00
21728;BME280;11026;50.560;17.852;2023-04-01T18:10:17;98278.34;;;8.79;100.00
21728;BME280;11026;50.560;17.852;2023-04-01T18:16:03;98287.16;;;8.48;100.00
21728;BME280;11026;50.560;17.852;2023-04-01T18:21:54;98289.44;;;8.38;100.00
21728;BME280;11026;50.560;17.852;2023-04-01T18:27:38;98302.03;;;8.31;100.00
21728;BME280;11026;50.560;17.852;2023-04-01T18:30:21;98303.19;;;8.43;100.00
21728;BME280;11026;50.560;17.852;2023-04-01T18:33:23;98302.09;;;8.47;100.00
21728;BME280;11026;50.560;17.852;2023-04-01T18:50:59;98325.34;;;8.72;100.00
21728;BME280;11026;50.560;17.852;2023-04-01T19:02:04;98337.81;;;8.69;100.00
21728;BME280;11026;50.560;17.852;2023-04-01T19:04:45;98338.94;;;8.65;100.00
21728;BME280;11026;50.560;17.852;2023-04-01T19:10:17;98345.47;;;8.57;100.00
21728;BME280;11026;50.560;17.852;2023-04-01T19:27:33;98359.50;;;8.25;100.00
21728;BME280;11026;50.560;17.852;2023-04-01T19:35:42;98368.16;;;8.27;100.00
21728;BME280;11026;50.560;17.852;2023-04-01T19:41:04;98374.19;;;8.46;100.00
21728;BME280;11026;50.560;17.852;2023-04-01T19:46:44;98376.44;;;8.70;100.00
21728;BME280;11026;50.560;17.852;2023-04-01T19:49:51;98378.50;;;8.80;100.00
21728;BME280;11026;50.560;17.852;2023-04-01T19:52:36;98396.56;;;8.71;100.00
21728;BME280;11026;50.560;17.852;2023-04-01T20:00:57;98388.59;;;8.72;100.00
21728;BME280;11026;50.560;17.852;2023-04-01T20:04:26;98387.50;;;8.76;100.00
21728;BME280;11026;50.560;17.852;2023-04-01T20:06:38;98393.38;;;8.81;100.00
21728;BME280;11026;50.560;17.852;2023-04-01T20:14:58;98403.06;;;8.81;100.00
21728;BME280;11026;50.560;17.852;2023-04-01T20:17:41;98408.00;;;8.71;100.00
21728;BME280;11026;50.560;17.852;2023-04-01T20:25:26;98414.97;;;8.22;100.00
21728;BME280;11026;50.560;17.852;2023-04-01T20:28:09;98414.13;;;8.21;100.00
21728;BME280;11026;50.560;17.852;2023-04-01T20:30:59;98409.72;;;8.22;100.00
21728;BME280;11026;50.560;17.852;2023-04-01T20:45:10;98423.59;;;8.58;100.00
21728;BME280;11026;50.560;17.852;2023-04-01T20:48:03;98415.78;;;8.57;100.00
21728;BME280;11026;50.560;17.852;2023-04-01T20:50:49;98419.19;;;8.59;100.00
21728;BME280;11026;50.560;17.852;2023-04-01T20:53:25;98424.22;;;8.64;100.00
21728;BME280;11026;50.560;17.852;2023-04-01T21:04:15;98423.81;;;8.38;100.00
21728;BME280;11026;50.560;17.852;2023-04-01T21:12:34;98439.59;;;8.55;100.00
21728;BME280;11026;50.560;17.852;2023-04-01T21:21:04;98454.78;;;8.83;100.00
21728;BME280;11026;50.560;17.852;2023-04-01T21:24:28;98453.72;;;8.70;100.00
21728;BME280;11026;50.560;17.852;2023-04-01T21:27:30;98456.63;;;8.66;100.00
21728;BME280;11026;50.560;17.852;2023-04-01T21:30:05;98463.63;;;8.49;100.00
21728;BME280;11026;50.560;17.852;2023-04-01T21:35:29;98464.19;;;8.56;100.00
21728;BME280;11026;50.560;17.852;2023-04-01T21:46:50;98465.53;;;8.63;100.00
21728;BME280;11026;50.560;17.852;2023-04-01T21:49:35;98461.72;;;8.69;100.00
21728;BME280;11026;50.560;17.852;2023-04-01T21:52:26;98462.75;;;8.66;100.00
21728;BME280;11026;50.560;17.852;2023-04-01T22:04:12;98477.16;;;8.76;100.00
21728;BME280;11026;50.560;17.852;2023-04-01T22:07:02;98472.72;;;8.77;100.00
21728;BME280;11026;50.560;17.852;2023-04-01T22:09:46;98479.69;;;8.78;100.00
21728;BME280;11026;50.560;17.852;2023-04-01T22:16:02;98477.22;;;8.75;100.00
21728;BME280;11026;50.560;17.852;2023-04-01T22:18:59;98481.84;;;8.87;100.00
21728;BME280;11026;50.560;17.852;2023-04-01T22:32:50;98493.59;;;8.97;100.00
21728;BME280;11026;50.560;17.852;2023-04-01T22:37:54;98500.06;;;8.92;100.00
21728;BME280;11026;50.560;17.852;2023-04-01T22:40:29;98494.09;;;8.88;100.00
21728;BME280;11026;50.560;17.852;2023-04-01T22:43:23;98498.59;;;8.86;100.00
21728;BME280;11026;50.560;17.852;2023-04-01T22:46:12;98505.41;;;8.90;100.00
21728;BME280;11026;50.560;17.852;2023-04-01T22:49:15;98497.34;;;8.93;100.00
21728;BME280;11026;50.560;17.852;2023-04-01T22:52:04;98504.66;;;8.88;100.00
21728;BME280;11026;50.560;17.852;2023-04-01T22:54:50;98504.31;;;8.94;100.00
21728;BME280;11026;50.560;17.852;2023-04-01T22:57:40;98506.50;;;8.86;100.00
21728;BME280;11026;50.560;17.852;2023-04-01T23:00:33;98506.34;;;8.89;100.00
21728;BME280;11026;50.560;17.852;2023-04-01T23:03:21;98511.53;;;8.91;100.00
21728;BME280;11026;50.560;17.852;2023-04-01T23:05:50;98507.44;;;8.85;100.00
21728;BME280;11026;50.560;17.852;2023-04-01T23:08:37;98518.94;;;8.84;100.00
21728;BME280;11026;50.560;17.852;2023-04-01T23:11:11;98515.84;;;8.76;100.00
21728;BME280;11026;50.560;17.852;2023-04-01T23:13:47;98521.72;;;8.81;100.00
21728;BME280;11026;50.560;17.852;2023-04-01T23:16:32;98523.25;;;8.85;100.00
21728;BME280;11026;50.560;17.852;2023-04-01T23:21:59;98526.22;;;8.79;100.00